sensor_id;sensor_type;location;lat;lon;timestamp;P1;durP1;ratioP1;P2;durP2;ratioP2
5638;SDS011;2841;44.526;11.360;2022-08-19T00:00:35;6.43;;;2.20;;
5638;SDS011;2841;44.526;11.360;2022-08-19T00:03:02;11.00;;;2.87;;
5638;SDS011;2841;44.526;11.360;2022-08-19T00:05:29;7.03;;;2.17;;
5638;SDS011;2841;44.526;11.360;2022-08-19T00:07:57;5.10;;;2.40;;
5638;SDS011;2841;44.526;11.360;2022-08-19T00:10:26;7.87;;;1.80;;
5638;SDS011;2841;44.526;11.360;2022-08-19T00:12:53;3.47;;;1.80;;
5638;SDS011;2841;44.526;11.360;2022-08-19T00:15:20;8.07;;;2.13;;
5638;SDS011;2841;44.526;11.360;2022-08-19T00:17:48;2.70;;;1.50;;
5638;SDS011;2841;44.526;11.360;2022-08-19T00:20:18;11.30;;;2.13;;
5638;SDS011;2841;44.526;11.360;2022-08-19T00:22:47;3.83;;;1.70;;
5638;SDS011;2841;44.526;11.360;2022-08-19T00:25:14;2.73;;;1.47;;
5638;SDS011;2841;44.526;11.360;2022-08-19T00:27:42;2.47;;;1.57;;
5638;SDS011;2841;44.526;11.360;2022-08-19T00:30:10;2.77;;;1.43;;
5638;SDS011;2841;44.526;11.360;2022-08-19T00:32:37;7.10;;;1.60;;
5638;SDS011;2841;44.526;11.360;2022-08-19T00:35:05;3.10;;;1.33;;
5638;SDS011;2841;44.526;11.360;2022-08-19T00:37:33;5.53;;;1.80;;
5638;SDS011;2841;44.526;11.360;2022-08-19T00:40:00;2.30;;;1.20;;
5638;SDS011;2841;44.526;11.360;2022-08-19T00:42:29;3.73;;;1.10;;
5638;SDS011;2841;44.526;11.360;2022-08-19T00:44:57;3.53;;;1.63;;
5638;SDS011;2841;44.526;11.360;2022-08-19T00:47:24;4.13;;;1.87;;
5638;SDS011;2841;44.526;11.360;2022-08-19T00:49:52;8.30;;;2.03;;
5638;SDS011;2841;44.526;11.360;2022-08-19T00:52:23;15.93;;;2.00;;
5638;SDS011;2841;44.526;11.360;2022-08-19T00:54:55;4.93;;;2.30;;
5638;SDS011;2841;44.526;11.360;2022-08-19T00:57:25;3.50;;;2.00;;
5638;SDS011;2841;44.526;11.360;2022-08-19T00:59:55;8.87;;;2.50;;
5638;SDS011;2841;44.526;11.360;2022-08-19T01:02:25;8.03;;;2.57;;
5638;SDS011;2841;44.526;11.360;2022-08-19T01:04:53;8.07;;;2.57;;
5638;SDS011;2841;44.526;11.360;2022-08-19T01:07:20;4.10;;;2.50;;
5638;SDS011;2841;44.526;11.360;2022-08-19T01:09:50;6.60;;;2.23;;
5638;SDS011;2841;44.526;11.360;2022-08-19T01:12:18;5.70;;;1.83;;
5638;SDS011;2841;44.526;11.360;2022-08-19T01:14:46;4.60;;;1.97;;
5638;SDS011;2841;44.526;11.360;2022-08-19T01:17:15;5.53;;;1.70;;
5638;SDS011;2841;44.526;11.360;2022-08-19T01:19:43;9.40;;;2.67;;
5638;SDS011;2841;44.526;11.360;2022-08-19T01:22:14;3.77;;;1.87;;
5638;SDS011;2841;44.526;11.360;2022-08-19T01:24:47;5.67;;;2.23;;
5638;SDS011;2841;44.526;11.360;2022-08-19T01:27:15;3.70;;;1.30;;
5638;SDS011;2841;44.526;11.360;2022-08-19T01:29:43;7.60;;;1.77;;
5638;SDS011;2841;44.526;11.360;2022-08-19T01:32:12;9.03;;;2.00;;
5638;SDS011;2841;44.526;11.360;2022-08-19T01:34:40;4.30;;;1.83;;
5638;SDS011;2841;44.526;11.360;2022-08-19T01:37:12;2.87;;;1.57;;
5638;SDS011;2841;44.526;11.360;2022-08-19T01:39:41;6.77;;;2.17;;
5638;SDS011;2841;44.526;11.360;2022-08-19T01:42:10;6.50;;;1.20;;
5638;SDS011;2841;44.526;11.360;2022-08-19T01:44:37;6.10;;;2.83;;
5638;SDS011;2841;44.526;11.360;2022-08-19T01:47:06;2.90;;;1.17;;
5638;SDS011;2841;44.526;11.360;2022-08-19T01:49:34;5.93;;;1.70;;
5638;SDS011;2841;44.526;11.360;2022-08-19T01:52:02;2.37;;;1.47;;
5638;SDS011;2841;44.526;11.360;2022-08-19T01:54:31;4.50;;;1.13;;
5638;SDS011;2841;44.526;11.360;2022-08-19T01:56:59;3.80;;;1.37;;
5638;SDS011;2841;44.526;11.360;2022-08-19T01:59:30;4.93;;;1.33;;
5638;SDS011;2841;44.526;11.360;2022-08-19T02:02:01;3.60;;;1.30;;
5638;SDS011;2841;44.526;11.360;2022-08-19T02:04:31;7.53;;;1.43;;
5638;SDS011;2841;44.526;11.360;2022-08-19T02:06:59;4.20;;;1.43;;
5638;SDS011;2841;44.526;11.360;2022-08-19T02:09:26;4.03;;;1.57;;
5638;SDS011;2841;44.526;11.360;2022-08-19T02:11:53;3.63;;;1.37;;
5638;SDS011;2841;44.526;11.360;2022-08-19T02:14:20;2.67;;;1.33;;
5638;SDS011;2841;44.526;11.360;2022-08-19T02:16:48;8.90;;;2.13;;
5638;SDS011;2841;44.526;11.360;2022-08-19T02:19:15;12.40;;;1.83;;
5638;SDS011;2841;44.526;11.360;2022-08-19T02:21:42;15.33;;;2.13;;
5638;SDS011;2841;44.526;11.360;2022-08-19T02:24:09;2.70;;;1.40;;
5638;SDS011;2841;44.526;11.360;2022-08-19T02:26:37;19.37;;;3.03;;
5638;SDS011;2841;44.526;11.360;2022-08-19T02:29:04;8.43;;;2.77;;
5638;SDS011;2841;44.526;11.360;2022-08-19T02:31:31;8.80;;;2.67;;
5638;SDS011;2841;44.526;11.360;2022-08-19T02:33:59;6.00;;;2.23;;
5638;SDS011;2841;44.526;11.360;2022-08-19T02:36:27;17.07;;;3.00;;
5638;SDS011;2841;44.526;11.360;2022-08-19T02:38:55;3.83;;;2.03;;
5638;SDS011;2841;44.526;11.360;2022-08-19T02:41:25;5.00;;;2.17;;
5638;SDS011;2841;44.526;11.360;2022-08-19T02:43:53;6.97;;;2.53;;
5638;SDS011;2841;44.526;11.360;2022-08-19T02:46:21;6.70;;;2.97;;
5638;SDS011;2841;44.526;11.360;2022-08-19T02:48:49;9.87;;;2.60;;
5638;SDS011;2841;44.526;11.360;2022-08-19T02:51:20;7.70;;;2.50;;
5638;SDS011;2841;44.526;11.360;2022-08-19T02:53:48;5.40;;;2.80;;
5638;SDS011;2841;44.526;11.360;2022-08-19T02:56:16;7.23;;;2.73;;
5638;SDS011;2841;44.526;11.360;2022-08-19T02:58:44;5.87;;;2.40;;
5638;SDS011;2841;44.526;11.360;2022-08-19T03:01:11;3.87;;;2.60;;
5638;SDS011;2841;44.526;11.360;2022-08-19T03:03:45;5.57;;;2.50;;
5638;SDS011;2841;44.526;11.360;2022-08-19T03:06:13;7.10;;;3.10;;
5638;SDS011;2841;44.526;11.360;2022-08-19T03:08:43;7.87;;;2.27;;
5638;SDS011;2841;44.526;11.360;2022-08-19T03:11:12;4.30;;;2.30;;
5638;SDS011;2841;44.526;11.360;2022-08-19T03:13:40;4.13;;;2.40;;
5638;SDS011;2841;44.526;11.360;2022-08-19T03:16:08;9.90;;;2.40;;
5638;SDS011;2841;44.526;11.360;2022-08-19T03:18:36;7.47;;;2.57;;
5638;SDS011;2841;44.526;11.360;2022-08-19T03:21:04;7.57;;;2.53;;
5638;SDS011;2841;44.526;11.360;2022-08-19T03:23:32;8.77;;;3.03;;
5638;SDS011;2841;44.526;11.360;2022-08-19T03:26:02;19.13;;;3.27;;
5638;SDS011;2841;44.526;11.360;2022-08-19T03:28:31;6.87;;;2.23;;
5638;SDS011;2841;44.526;11.360;2022-08-19T03:31:01;6.23;;;2.27;;
5638;SDS011;2841;44.526;11.360;2022-08-19T03:33:31;9.13;;;2.50;;
5638;SDS011;2841;44.526;11.360;2022-08-19T03:35:59;3.87;;;2.13;;
5638;SDS011;2841;44.526;11.360;2022-08-19T03:38:27;5.93;;;2.63;;
5638;SDS011;2841;44.526;11.360;2022-08-19T03:40:54;4.63;;;2.50;;
5638;SDS011;2841;44.526;11.360;2022-08-19T03:43:23;9.33;;;3.00;;
5638;SDS011;2841;44.526;11.360;2022-08-19T03:45:58;3.87;;;2.80;;
5638;SDS011;2841;44.526;11.360;2022-08-19T03:48:27;7.17;;;3.00;;
5638;SDS011;2841;44.526;11.360;2022-08-19T03:50:55;7.10;;;2.40;;
5638;SDS011;2841;44.526;11.360;2022-08-19T03:53:23;3.93;;;1.90;;
5638;SDS011;2841;44.526;11.360;2022-08-19T03:55:51;14.43;;;2.83;;
5638;SDS011;2841;44.526;11.360;2022-08-19T03:58:18;6.40;;;2.17;;
5638;SDS011;2841;44.526;11.360;2022-08-19T04:00:47;10.07;;;2.67;;
5638;SDS011;2841;44.526;11.360;2022-08-19T04:03:14;7.17;;;2.90;;
5638;SDS011;2841;44.526;11.360;2022-08-19T04:05:43;7.47;;;2.90;;
5638;SDS011;2841;44.526;11.360;2022-08-19T04:08:11;5.53;;;3.03;;
5638;SDS011;2841;44.526;11.360;2022-08-19T04:10:38;11.27;;;3.93;;
5638;SDS011;2841;44.526;11.360;2022-08-19T04:13:05;7.67;;;2.80;;
5638;SDS011;2841;44.526;11.360;2022-08-19T04:15:38;9.70;;;3.40;;
5638;SDS011;2841;44.526;11.360;2022-08-19T04:18:08;6.90;;;2.50;;
5638;SDS011;2841;44.526;11.360;2022-08-19T04:20:43;8.60;;;2.43;;
5638;SDS011;2841;44.526;11.360;2022-08-19T04:23:12;13.90;;;3.30;;
5638;SDS011;2841;44.526;11.360;2022-08-19T04:25:41;6.03;;;2.87;;
5638;SDS011;2841;44.526;11.360;2022-08-19T04:28:09;10.53;;;2.60;;
5638;SDS011;2841;44.526;11.360;2022-08-19T04:30:39;10.53;;;3.17;;
5638;SDS011;2841;44.526;11.360;2022-08-19T04:33:08;15.90;;;3.50;;
5638;SDS011;2841;44.526;11.360;2022-08-19T04:35:36;11.60;;;3.40;;
5638;SDS011;2841;44.526;11.360;2022-08-19T04:38:04;5.70;;;2.20;;
5638;SDS011;2841;44.526;11.360;2022-08-19T04:40:32;6.57;;;3.00;;
5638;SDS011;2841;44.526;11.360;2022-08-19T04:43:16;6.70;;;2.90;;
5638;SDS011;2841;44.526;11.360;2022-08-19T04:45:44;16.27;;;4.73;;
5638;SDS011;2841;44.526;11.360;2022-08-19T04:48:13;8.60;;;3.10;;
5638;SDS011;2841;44.526;11.360;2022-08-19T04:50:41;5.63;;;3.20;;
5638;SDS011;2841;44.526;11.360;2022-08-19T04:53:08;13.83;;;3.50;;
5638;SDS011;2841;44.526;11.360;2022-08-19T04:55:38;12.33;;;4.03;;
5638;SDS011;2841;44.526;11.360;2022-08-19T04:58:06;16.50;;;3.73;;
5638;SDS011;2841;44.526;11.360;2022-08-19T05:00:33;7.10;;;3.87;;
5638;SDS011;2841;44.526;11.360;2022-08-19T05:03:00;11.00;;;3.07;;
5638;SDS011;2841;44.526;11.360;2022-08-19T05:05:28;5.43;;;2.53;;
5638;SDS011;2841;44.526;11.360;2022-08-19T05:07:56;5.93;;;2.60;;
5638;SDS011;2841;44.526;11.360;2022-08-19T05:10:23;7.73;;;3.43;;
5638;SDS011;2841;44.526;11.360;2022-08-19T05:12:50;11.20;;;3.53;;
5638;SDS011;2841;44.526;11.360;2022-08-19T05:15:17;5.63;;;2.60;;
5638;SDS011;2841;44.526;11.360;2022-08-19T05:17:45;11.93;;;3.57;;
5638;SDS011;2841;44.526;11.360;2022-08-19T05:20:25;12.13;;;4.30;;
5638;SDS011;2841;44.526;11.360;2022-08-19T05:23:11;11.43;;;2.53;;
5638;SDS011;2841;44.526;11.360;2022-08-19T05:25:42;11.53;;;3.60;;
5638;SDS011;2841;44.526;11.360;2022-08-19T05:28:09;10.73;;;3.67;;
5638;SDS011;2841;44.526;11.360;2022-08-19T05:30:36;11.50;;;4.00;;
5638;SDS011;2841;44.526;11.360;2022-08-19T05:33:06;9.00;;;3.33;;
5638;SDS011;2841;44.526;11.360;2022-08-19T05:35:35;11.17;;;3.80;;
5638;SDS011;2841;44.526;11.360;2022-08-19T05:38:02;19.90;;;3.60;;
5638;SDS011;2841;44.526;11.360;2022-08-19T05:40:31;17.83;;;4.80;;
5638;SDS011;2841;44.526;11.360;2022-08-19T05:43:01;6.10;;;2.53;;
5638;SDS011;2841;44.526;11.360;2022-08-19T05:45:28;6.17;;;3.00;;
5638;SDS011;2841;44.526;11.360;2022-08-19T05:47:55;5.53;;;2.87;;
5638;SDS011;2841;44.526;11.360;2022-08-19T05:50:23;4.57;;;2.37;;
5638;SDS011;2841;44.526;11.360;2022-08-19T05:52:50;6.80;;;2.20;;
5638;SDS011;2841;44.526;11.360;2022-08-19T05:55:17;8.23;;;2.27;;
5638;SDS011;2841;44.526;11.360;2022-08-19T05:57:46;10.57;;;2.77;;
5638;SDS011;2841;44.526;11.360;2022-08-19T06:00:13;7.83;;;2.97;;
5638;SDS011;2841;44.526;11.360;2022-08-19T06:02:41;4.40;;;2.17;;
5638;SDS011;2841;44.526;11.360;2022-08-19T06:05:08;9.77;;;2.10;;
5638;SDS011;2841;44.526;11.360;2022-08-19T06:07:36;12.00;;;2.47;;
5638;SDS011;2841;44.526;11.360;2022-08-19T06:10:04;5.37;;;1.93;;
5638;SDS011;2841;44.526;11.360;2022-08-19T06:12:33;4.67;;;2.10;;
5638;SDS011;2841;44.526;11.360;2022-08-19T06:15:03;5.73;;;1.60;;
5638;SDS011;2841;44.526;11.360;2022-08-19T06:17:32;5.60;;;1.83;;
5638;SDS011;2841;44.526;11.360;2022-08-19T06:20:00;11.13;;;2.00;;
5638;SDS011;2841;44.526;11.360;2022-08-19T06:22:27;5.27;;;2.67;;
5638;SDS011;2841;44.526;11.360;2022-08-19T06:24:55;19.80;;;5.70;;
5638;SDS011;2841;44.526;11.360;2022-08-19T06:27:22;18.20;;;6.00;;
5638;SDS011;2841;44.526;11.360;2022-08-19T06:29:49;12.13;;;6.70;;
5638;SDS011;2841;44.526;11.360;2022-08-19T06:32:17;8.73;;;5.17;;
5638;SDS011;2841;44.526;11.360;2022-08-19T06:34:44;8.87;;;5.10;;
5638;SDS011;2841;44.526;11.360;2022-08-19T06:37:12;18.00;;;3.97;;
5638;SDS011;2841;44.526;11.360;2022-08-19T06:39:41;8.07;;;3.47;;
5638;SDS011;2841;44.526;11.360;2022-08-19T06:42:09;7.50;;;3.03;;
5638;SDS011;2841;44.526;11.360;2022-08-19T06:44:41;7.07;;;3.57;;
5638;SDS011;2841;44.526;11.360;2022-08-19T06:47:10;11.97;;;3.13;;
5638;SDS011;2841;44.526;11.360;2022-08-19T06:49:41;7.80;;;2.53;;
5638;SDS011;2841;44.526;11.360;2022-08-19T06:52:08;9.10;;;2.20;;
5638;SDS011;2841;44.526;11.360;2022-08-19T06:54:36;4.50;;;1.77;;
5638;SDS011;2841;44.526;11.360;2022-08-19T06:57:04;3.10;;;1.90;;
5638;SDS011;2841;44.526;11.360;2022-08-19T06:59:31;4.07;;;2.10;;
5638;SDS011;2841;44.526;11.360;2022-08-19T07:02:00;8.77;;;2.30;;
5638;SDS011;2841;44.526;11.360;2022-08-19T07:04:30;10.80;;;2.17;;
5638;SDS011;2841;44.526;11.360;2022-08-19T07:07:00;5.97;;;2.10;;
5638;SDS011;2841;44.526;11.360;2022-08-19T07:09:31;6.77;;;1.90;;
5638;SDS011;2841;44.526;11.360;2022-08-19T07:11:58;5.87;;;2.30;;
5638;SDS011;2841;44.526;11.360;2022-08-19T07:14:27;5.30;;;1.77;;
5638;SDS011;2841;44.526;11.360;2022-08-19T07:16:55;11.83;;;2.10;;
5638;SDS011;2841;44.526;11.360;2022-08-19T07:19:23;3.63;;;1.30;;
5638;SDS011;2841;44.526;11.360;2022-08-19T07:21:53;6.73;;;1.73;;
5638;SDS011;2841;44.526;11.360;2022-08-19T07:24:23;3.77;;;1.27;;
5638;SDS011;2841;44.526;11.360;2022-08-19T07:26:52;7.20;;;1.70;;
5638;SDS011;2841;44.526;11.360;2022-08-19T07:29:20;6.80;;;1.40;;
5638;SDS011;2841;44.526;11.360;2022-08-19T07:31:48;2.90;;;1.30;;
5638;SDS011;2841;44.526;11.360;2022-08-19T07:34:16;1.77;;;0.70;;
5638;SDS011;2841;44.526;11.360;2022-08-19T07:36:44;4.77;;;1.10;;
5638;SDS011;2841;44.526;11.360;2022-08-19T07:39:17;2.13;;;1.20;;
5638;SDS011;2841;44.526;11.360;2022-08-19T07:41:47;2.50;;;0.70;;
5638;SDS011;2841;44.526;11.360;2022-08-19T07:44:16;6.90;;;0.80;;
5638;SDS011;2841;44.526;11.360;2022-08-19T07:46:44;4.70;;;1.00;;
5638;SDS011;2841;44.526;11.360;2022-08-19T07:49:13;4.43;;;0.97;;
5638;SDS011;2841;44.526;11.360;2022-08-19T07:51:44;2.03;;;0.90;;
5638;SDS011;2841;44.526;11.360;2022-08-19T07:54:11;1.90;;;0.87;;
5638;SDS011;2841;44.526;11.360;2022-08-19T07:56:39;2.67;;;1.10;;
5638;SDS011;2841;44.526;11.360;2022-08-19T07:59:07;2.63;;;1.33;;
5638;SDS011;2841;44.526;11.360;2022-08-19T08:01:35;2.27;;;0.60;;
5638;SDS011;2841;44.526;11.360;2022-08-19T08:04:02;1.97;;;0.70;;
5638;SDS011;2841;44.526;11.360;2022-08-19T08:06:47;1.67;;;0.70;;
5638;SDS011;2841;44.526;11.360;2022-08-19T08:09:32;2.77;;;0.90;;
5638;SDS011;2841;44.526;11.360;2022-08-19T08:12:01;2.63;;;0.97;;
5638;SDS011;2841;44.526;11.360;2022-08-19T08:14:34;2.37;;;0.83;;
5638;SDS011;2841;44.526;11.360;2022-08-19T08:17:05;1.77;;;0.70;;
5638;SDS011;2841;44.526;11.360;2022-08-19T08:19:33;2.83;;;0.93;;
5638;SDS011;2841;44.526;11.360;2022-08-19T08:22:00;5.70;;;1.10;;
5638;SDS011;2841;44.526;11.360;2022-08-19T08:24:28;3.30;;;1.10;;
5638;SDS011;2841;44.526;11.360;2022-08-19T08:26:57;8.13;;;1.00;;
5638;SDS011;2841;44.526;11.360;2022-08-19T08:29:25;3.30;;;1.10;;
5638;SDS011;2841;44.526;11.360;2022-08-19T08:31:54;2.20;;;0.90;;
5638;SDS011;2841;44.526;11.360;2022-08-19T08:34:21;2.40;;;0.70;;
5638;SDS011;2841;44.526;11.360;2022-08-19T08:36:48;2.60;;;0.87;;
5638;SDS011;2841;44.526;11.360;2022-08-19T08:39:17;3.67;;;1.00;;
5638;SDS011;2841;44.526;11.360;2022-08-19T08:41:47;2.70;;;0.70;;
5638;SDS011;2841;44.526;11.360;2022-08-19T08:44:20;2.67;;;0.83;;
5638;SDS011;2841;44.526;11.360;2022-08-19T08:46:50;2.00;;;0.80;;
5638;SDS011;2841;44.526;11.360;2022-08-19T08:49:27;2.20;;;0.97;;
5638;SDS011;2841;44.526;11.360;2022-08-19T08:52:02;3.27;;;1.20;;
5638;SDS011;2841;44.526;11.360;2022-08-19T08:54:33;3.70;;;1.40;;
5638;SDS011;2841;44.526;11.360;2022-08-19T08:57:04;2.60;;;1.23;;
5638;SDS011;2841;44.526;11.360;2022-08-19T08:59:36;2.53;;;0.70;;
5638;SDS011;2841;44.526;11.360;2022-08-19T09:02:07;4.43;;;1.20;;
5638;SDS011;2841;44.526;11.360;2022-08-19T09:04:34;3.20;;;0.83;;
5638;SDS011;2841;44.526;11.360;2022-08-19T09:07:08;3.53;;;0.90;;
5638;SDS011;2841;44.526;11.360;2022-08-19T09:09:46;2.13;;;0.70;;
5638;SDS011;2841;44.526;11.360;2022-08-19T09:12:16;2.60;;;0.80;;
5638;SDS011;2841;44.526;11.360;2022-08-19T09:14:52;2.23;;;0.87;;
5638;SDS011;2841;44.526;11.360;2022-08-19T09:17:25;2.70;;;1.10;;
5638;SDS011;2841;44.526;11.360;2022-08-19T09:19:56;3.33;;;0.97;;
5638;SDS011;2841;44.526;11.360;2022-08-19T09:22:25;5.27;;;1.13;;
5638;SDS011;2841;44.526;11.360;2022-08-19T09:24:53;8.40;;;1.10;;
5638;SDS011;2841;44.526;11.360;2022-08-19T09:27:20;7.97;;;1.40;;
5638;SDS011;2841;44.526;11.360;2022-08-19T09:29:50;3.50;;;1.20;;
5638;SDS011;2841;44.526;11.360;2022-08-19T09:32:17;3.03;;;1.23;;
5638;SDS011;2841;44.526;11.360;2022-08-19T09:34:46;2.20;;;1.03;;
5638;SDS011;2841;44.526;11.360;2022-08-19T09:37:13;2.03;;;0.80;;
5638;SDS011;2841;44.526;11.360;2022-08-19T09:39:40;4.43;;;0.90;;
5638;SDS011;2841;44.526;11.360;2022-08-19T09:42:07;5.97;;;1.10;;
5638;SDS011;2841;44.526;11.360;2022-08-19T09:44:37;7.10;;;1.60;;
5638;SDS011;2841;44.526;11.360;2022-08-19T09:47:04;2.60;;;1.03;;
5638;SDS011;2841;44.526;11.360;2022-08-19T09:49:32;2.43;;;1.23;;
5638;SDS011;2841;44.526;11.360;2022-08-19T09:52:00;3.00;;;1.37;;
5638;SDS011;2841;44.526;11.360;2022-08-19T09:54:28;6.73;;;1.07;;
5638;SDS011;2841;44.526;11.360;2022-08-19T09:56:55;4.17;;;0.90;;
5638;SDS011;2841;44.526;11.360;2022-08-19T09:59:25;3.60;;;1.40;;
5638;SDS011;2841;44.526;11.360;2022-08-19T10:01:52;2.20;;;0.93;;
5638;SDS011;2841;44.526;11.360;2022-08-19T10:04:20;2.47;;;0.93;;
5638;SDS011;2841;44.526;11.360;2022-08-19T10:06:48;1.90;;;0.60;;
5638;SDS011;2841;44.526;11.360;2022-08-19T10:09:17;4.40;;;1.00;;
5638;SDS011;2841;44.526;11.360;2022-08-19T10:11:44;1.90;;;0.70;;
5638;SDS011;2841;44.526;11.360;2022-08-19T10:14:13;6.83;;;1.67;;
5638;SDS011;2841;44.526;11.360;2022-08-19T10:16:41;4.10;;;0.70;;
5638;SDS011;2841;44.526;11.360;2022-08-19T10:19:08;6.40;;;1.63;;
5638;SDS011;2841;44.526;11.360;2022-08-19T10:21:36;3.20;;;1.20;;
5638;SDS011;2841;44.526;11.360;2022-08-19T10:24:04;1.97;;;0.83;;
5638;SDS011;2841;44.526;11.360;2022-08-19T10:26:35;1.93;;;0.93;;
5638;SDS011;2841;44.526;11.360;2022-08-19T10:29:04;2.10;;;1.03;;
5638;SDS011;2841;44.526;11.360;2022-08-19T10:31:32;2.27;;;1.07;;
5638;SDS011;2841;44.526;11.360;2022-08-19T10:34:00;3.00;;;1.13;;
5638;SDS011;2841;44.526;11.360;2022-08-19T10:36:28;3.00;;;1.10;;
5638;SDS011;2841;44.526;11.360;2022-08-19T10:38:57;3.43;;;1.50;;
5638;SDS011;2841;44.526;11.360;2022-08-19T10:41:27;2.73;;;1.13;;
5638;SDS011;2841;44.526;11.360;2022-08-19T10:43:58;2.40;;;0.60;;
5638;SDS011;2841;44.526;11.360;2022-08-19T10:46:27;2.70;;;1.00;;
5638;SDS011;2841;44.526;11.360;2022-08-19T10:48:56;3.30;;;0.97;;
5638;SDS011;2841;44.526;11.360;2022-08-19T10:51:23;3.10;;;1.17;;
5638;SDS011;2841;44.526;11.360;2022-08-19T10:54:07;2.73;;;1.00;;
5638;SDS011;2841;44.526;11.360;2022-08-19T10:56:35;2.17;;;0.80;;
5638;SDS011;2841;44.526;11.360;2022-08-19T10:59:18;2.40;;;1.07;;
5638;SDS011;2841;44.526;11.360;2022-08-19T11:01:47;3.40;;;0.60;;
5638;SDS011;2841;44.526;11.360;2022-08-19T11:04:15;3.93;;;0.60;;
5638;SDS011;2841;44.526;11.360;2022-08-19T11:06:42;3.43;;;1.13;;
5638;SDS011;2841;44.526;11.360;2022-08-19T11:09:12;1.90;;;0.90;;
5638;SDS011;2841;44.526;11.360;2022-08-19T11:11:41;1.80;;;0.77;;
5638;SDS011;2841;44.526;11.360;2022-08-19T11:14:09;3.07;;;1.40;;
5638;SDS011;2841;44.526;11.360;2022-08-19T11:16:41;3.97;;;0.97;;
5638;SDS011;2841;44.526;11.360;2022-08-19T11:19:09;2.07;;;0.67;;
5638;SDS011;2841;44.526;11.360;2022-08-19T11:21:38;2.37;;;0.77;;
5638;SDS011;2841;44.526;11.360;2022-08-19T11:24:07;5.00;;;1.27;;
5638;SDS011;2841;44.526;11.360;2022-08-19T11:26:39;2.70;;;0.70;;
5638;SDS011;2841;44.526;11.360;2022-08-19T11:29:07;2.77;;;0.70;;
5638;SDS011;2841;44.526;11.360;2022-08-19T11:31:37;2.90;;;0.83;;
5638;SDS011;2841;44.526;11.360;2022-08-19T11:34:08;3.30;;;0.70;;
5638;SDS011;2841;44.526;11.360;2022-08-19T11:36:38;2.10;;;0.63;;
5638;SDS011;2841;44.526;11.360;2022-08-19T11:39:08;2.77;;;1.00;;
5638;SDS011;2841;44.526;11.360;2022-08-19T11:41:35;1.60;;;0.60;;
5638;SDS011;2841;44.526;11.360;2022-08-19T11:44:02;2.37;;;0.70;;
5638;SDS011;2841;44.526;11.360;2022-08-19T11:46:31;1.97;;;0.90;;
5638;SDS011;2841;44.526;11.360;2022-08-19T11:48:58;2.07;;;0.83;;
5638;SDS011;2841;44.526;11.360;2022-08-19T11:51:29;4.13;;;1.20;;
5638;SDS011;2841;44.526;11.360;2022-08-19T11:53:56;1.53;;;0.60;;
5638;SDS011;2841;44.526;11.360;2022-08-19T11:56:25;1.73;;;0.63;;
5638;SDS011;2841;44.526;11.360;2022-08-19T11:58:53;2.33;;;0.87;;
5638;SDS011;2841;44.526;11.360;2022-08-19T12:01:22;2.10;;;1.00;;
5638;SDS011;2841;44.526;11.360;2022-08-19T12:03:51;2.43;;;0.80;;
5638;SDS011;2841;44.526;11.360;2022-08-19T12:06:20;2.47;;;1.10;;
5638;SDS011;2841;44.526;11.360;2022-08-19T12:08:52;3.03;;;1.00;;
5638;SDS011;2841;44.526;11.360;2022-08-19T12:11:19;2.50;;;0.90;;
5638;SDS011;2841;44.526;11.360;2022-08-19T12:13:46;2.47;;;0.70;;
5638;SDS011;2841;44.526;11.360;2022-08-19T12:16:14;2.80;;;0.90;;
5638;SDS011;2841;44.526;11.360;2022-08-19T12:18:43;2.70;;;0.80;;
5638;SDS011;2841;44.526;11.360;2022-08-19T12:21:11;2.20;;;0.80;;
5638;SDS011;2841;44.526;11.360;2022-08-19T12:23:39;5.00;;;1.30;;
5638;SDS011;2841;44.526;11.360;2022-08-19T12:26:08;4.00;;;0.90;;
5638;SDS011;2841;44.526;11.360;2022-08-19T12:28:36;2.03;;;0.70;;
5638;SDS011;2841;44.526;11.360;2022-08-19T12:31:03;1.90;;;0.67;;
5638;SDS011;2841;44.526;11.360;2022-08-19T12:33:30;1.60;;;0.60;;
5638;SDS011;2841;44.526;11.360;2022-08-19T12:35:59;4.50;;;0.90;;
5638;SDS011;2841;44.526;11.360;2022-08-19T12:38:28;1.97;;;0.67;;
5638;SDS011;2841;44.526;11.360;2022-08-19T12:40:55;2.10;;;0.80;;
5638;SDS011;2841;44.526;11.360;2022-08-19T12:43:23;3.80;;;1.00;;
5638;SDS011;2841;44.526;11.360;2022-08-19T12:45:51;5.03;;;0.70;;
5638;SDS011;2841;44.526;11.360;2022-08-19T12:48:18;3.63;;;0.80;;
5638;SDS011;2841;44.526;11.360;2022-08-19T12:50:46;2.40;;;1.03;;
5638;SDS011;2841;44.526;11.360;2022-08-19T12:53:13;1.93;;;0.63;;
5638;SDS011;2841;44.526;11.360;2022-08-19T12:55:40;3.53;;;0.70;;
5638;SDS011;2841;44.526;11.360;2022-08-19T12:58:08;3.00;;;0.90;;
5638;SDS011;2841;44.526;11.360;2022-08-19T13:00:39;3.17;;;0.90;;
5638;SDS011;2841;44.526;11.360;2022-08-19T13:03:06;3.93;;;0.70;;
5638;SDS011;2841;44.526;11.360;2022-08-19T13:05:33;2.80;;;0.80;;
5638;SDS011;2841;44.526;11.360;2022-08-19T13:08:00;2.90;;;0.80;;
5638;SDS011;2841;44.526;11.360;2022-08-19T13:10:29;1.90;;;0.70;;
5638;SDS011;2841;44.526;11.360;2022-08-19T13:13:00;1.50;;;0.50;;
5638;SDS011;2841;44.526;11.360;2022-08-19T13:15:28;2.00;;;0.70;;
5638;SDS011;2841;44.526;11.360;2022-08-19T13:18:01;2.87;;;0.80;;
5638;SDS011;2841;44.526;11.360;2022-08-19T13:20:28;3.40;;;0.90;;
5638;SDS011;2841;44.526;11.360;2022-08-19T13:22:55;3.20;;;1.13;;
5638;SDS011;2841;44.526;11.360;2022-08-19T13:25:22;2.10;;;0.90;;
5638;SDS011;2841;44.526;11.360;2022-08-19T13:27:50;2.50;;;0.70;;
5638;SDS011;2841;44.526;11.360;2022-08-19T13:30:18;1.90;;;0.60;;
5638;SDS011;2841;44.526;11.360;2022-08-19T13:33:04;1.93;;;0.70;;
5638;SDS011;2841;44.526;11.360;2022-08-19T13:35:40;6.30;;;0.90;;
5638;SDS011;2841;44.526;11.360;2022-08-19T13:38:08;2.53;;;0.80;;
5638;SDS011;2841;44.526;11.360;2022-08-19T13:40:36;1.80;;;0.70;;
5638;SDS011;2841;44.526;11.360;2022-08-19T13:43:03;2.93;;;0.70;;
5638;SDS011;2841;44.526;11.360;2022-08-19T13:45:32;1.60;;;0.70;;
5638;SDS011;2841;44.526;11.360;2022-08-19T13:48:00;7.70;;;0.90;;
5638;SDS011;2841;44.526;11.360;2022-08-19T13:50:33;2.20;;;1.00;;
5638;SDS011;2841;44.526;11.360;2022-08-19T13:53:02;5.10;;;0.87;;
5638;SDS011;2841;44.526;11.360;2022-08-19T13:55:29;2.23;;;0.80;;
5638;SDS011;2841;44.526;11.360;2022-08-19T13:57:57;6.50;;;1.10;;
5638;SDS011;2841;44.526;11.360;2022-08-19T14:00:25;2.00;;;0.60;;
5638;SDS011;2841;44.526;11.360;2022-08-19T14:02:55;6.03;;;1.00;;
5638;SDS011;2841;44.526;11.360;2022-08-19T14:05:23;1.73;;;0.80;;
5638;SDS011;2841;44.526;11.360;2022-08-19T14:07:52;2.43;;;0.73;;
5638;SDS011;2841;44.526;11.360;2022-08-19T14:10:20;1.60;;;0.70;;
5638;SDS011;2841;44.526;11.360;2022-08-19T14:12:48;2.93;;;0.90;;
5638;SDS011;2841;44.526;11.360;2022-08-19T14:15:15;2.63;;;0.70;;
5638;SDS011;2841;44.526;11.360;2022-08-19T14:17:43;2.67;;;0.83;;
5638;SDS011;2841;44.526;11.360;2022-08-19T14:20:12;1.93;;;0.93;;
5638;SDS011;2841;44.526;11.360;2022-08-19T14:22:41;4.90;;;0.93;;
5638;SDS011;2841;44.526;11.360;2022-08-19T14:25:11;2.03;;;0.70;;
5638;SDS011;2841;44.526;11.360;2022-08-19T14:27:40;2.03;;;0.80;;
5638;SDS011;2841;44.526;11.360;2022-08-19T14:30:08;2.10;;;0.87;;
5638;SDS011;2841;44.526;11.360;2022-08-19T14:32:36;2.47;;;0.70;;
5638;SDS011;2841;44.526;11.360;2022-08-19T14:35:04;3.10;;;0.80;;
5638;SDS011;2841;44.526;11.360;2022-08-19T14:37:32;5.10;;;1.63;;
5638;SDS011;2841;44.526;11.360;2022-08-19T14:40:00;2.07;;;0.80;;
5638;SDS011;2841;44.526;11.360;2022-08-19T14:42:29;1.90;;;0.90;;
5638;SDS011;2841;44.526;11.360;2022-08-19T14:44:57;2.07;;;0.67;;
5638;SDS011;2841;44.526;11.360;2022-08-19T14:47:25;1.97;;;0.60;;
5638;SDS011;2841;44.526;11.360;2022-08-19T14:49:52;1.80;;;0.60;;
5638;SDS011;2841;44.526;11.360;2022-08-19T14:52:19;3.53;;;0.97;;
5638;SDS011;2841;44.526;11.360;2022-08-19T14:54:46;2.50;;;0.90;;
5638;SDS011;2841;44.526;11.360;2022-08-19T14:57:13;2.87;;;0.70;;
5638;SDS011;2841;44.526;11.360;2022-08-19T14:59:42;1.90;;;0.60;;
5638;SDS011;2841;44.526;11.360;2022-08-19T15:02:10;2.60;;;0.90;;
5638;SDS011;2841;44.526;11.360;2022-08-19T15:04:37;2.00;;;0.73;;
5638;SDS011;2841;44.526;11.360;2022-08-19T15:07:05;2.17;;;0.83;;
5638;SDS011;2841;44.526;11.360;2022-08-19T15:09:32;4.47;;;1.03;;